createdAt,value
2023-11-26T00:05:00.858Z,78.72
2023-11-26T00:10:10.515Z,78.74
2023-11-26T00:15:17.801Z,78.72
2023-11-26T00:20:25.388Z,78.75
2023-11-26T00:25:32.583Z,78.77
2023-11-26T00:30:39.668Z,78.87
2023-11-26T00:35:46.840Z,79.05
2023-11-26T00:40:54.028Z,78.91
2023-11-26T00:46:01.537Z,78.94
2023-11-26T00:51:08.712Z,79.01
2023-11-26T00:56:16.038Z,78.81
2023-11-26T01:01:23.360Z,78.91
2023-11-26T01:06:30.464Z,78.78
2023-11-26T01:11:38.650Z,78.82
2023-11-26T01:16:47.229Z,78.88
2023-11-26T01:21:55.381Z,79.03
2023-11-26T01:27:02.703Z,78.94
2023-11-26T01:32:10.540Z,79.05
2023-11-26T01:37:16.409Z,79.05
2023-11-26T01:42:23.777Z,79.10
2023-11-26T01:47:31.379Z,79.02
2023-11-26T01:52:38.983Z,79.01
2023-11-26T01:57:47.720Z,79.07
2023-11-26T02:02:53.865Z,79.09
2023-11-26T02:08:01.376Z,79.16
2023-11-26T02:13:09.461Z,79.37
2023-11-26T02:18:15.774Z,79.28
2023-11-26T02:23:23.112Z,79.13
2023-11-26T02:28:30.309Z,79.22
2023-11-26T02:33:53.925Z,79.25
2023-11-26T02:39:05.923Z,79.16
2023-11-26T02:44:15.296Z,79.33
2023-11-26T02:49:21.160Z,79.41
2023-11-26T02:54:28.377Z,79.57
2023-11-26T02:59:35.560Z,79.45
2023-11-26T03:04:49.354Z,79.47
2023-11-26T03:10:14.526Z,79.36
2023-11-26T03:15:22.358Z,79.37
2023-11-26T03:20:29.488Z,79.23
2023-11-26T03:25:37.097Z,79.28
2023-11-26T03:30:44.267Z,79.38
2023-11-26T03:35:51.681Z,79.46
2023-11-26T03:40:59.435Z,79.46
2023-11-26T03:46:08.102Z,79.28
2023-11-26T03:51:21.797Z,79.26
2023-11-26T03:56:29.094Z,79.14
2023-11-26T04:01:36.357Z,79.16
2023-11-26T04:06:43.899Z,79.09
2023-11-26T04:11:51.762Z,79.12
2023-11-26T04:16:57.525Z,79.16
2023-11-26T04:22:05.866Z,79.24
2023-11-26T04:27:13.110Z,79.26
2023-11-26T04:32:33.919Z,79.26
2023-11-26T04:37:41.018Z,79.32
2023-11-26T04:42:48.597Z,79.36
2023-11-26T04:47:55.938Z,79.42
2023-11-26T04:53:03.326Z,79.25
2023-11-26T04:58:11.284Z,79.23
2023-11-26T05:03:19.115Z,79.24
2023-11-26T05:08:25.527Z,79.31
2023-11-26T05:13:34.155Z,79.33
2023-11-26T05:18:41.777Z,79.28
2023-11-26T05:23:49.729Z,79.27
2023-11-26T05:28:57.338Z,79.26
2023-11-26T05:34:04.541Z,79.34
2023-11-26T05:39:13.068Z,79.40
2023-11-26T05:44:20.238Z,79.37
2023-11-26T05:49:27.904Z,79.32
2023-11-26T05:54:34.988Z,79.33
2023-11-26T05:59:42.209Z,79.42
2023-11-26T06:04:49.447Z,79.33
2023-11-26T06:09:56.662Z,79.29
2023-11-26T06:15:03.820Z,79.27
2023-11-26T06:20:13.397Z,79.16
2023-11-26T06:25:21.248Z,79.16
2023-11-26T06:30:26.932Z,79.16
2023-11-26T06:35:34.304Z,79.16
2023-11-26T06:40:41.548Z,79.14
2023-11-26T06:45:48.747Z,79.26
2023-11-26T06:50:56.267Z,79.32
2023-11-26T06:56:03.577Z,79.32
2023-11-26T07:01:11.565Z,79.37
2023-11-26T07:06:19.039Z,79.35
2023-11-26T07:11:26.241Z,79.27
2023-11-26T07:16:33.515Z,79.06
2023-11-26T07:21:44.833Z,79.09
2023-11-26T07:26:52.194Z,79.05
2023-11-26T07:32:00.635Z,79.27
2023-11-26T07:37:08.153Z,79.29
2023-11-26T07:42:15.337Z,79.25
2023-11-26T07:47:23.503Z,79.33
2023-11-26T07:52:31.563Z,79.17
2023-11-26T07:57:39.607Z,79.07
2023-11-26T08:02:47.448Z,79.10
2023-11-26T08:07:53.104Z,79.15
2023-11-26T08:13:00.632Z,79.02
2023-11-26T08:18:08.082Z,79.04
2023-11-26T08:23:15.246Z,79.10
2023-11-26T08:28:28.867Z,79.18
2023-11-26T08:33:42.911Z,79.32
2023-11-26T08:38:51.817Z,79.86
2023-11-26T08:44:00.286Z,79.69
2023-11-26T08:49:09.966Z,78.67
2023-11-26T08:54:17.262Z,78.17
2023-11-26T08:59:24.783Z,78.13
2023-11-26T09:04:32.172Z,78.15
2023-11-26T09:09:39.485Z,78.00
2023-11-26T09:14:46.757Z,78.06
2023-11-26T09:19:53.982Z,78.10
2023-11-26T09:25:01.534Z,78.11
2023-11-26T09:30:10.796Z,78.10
2023-11-26T09:35:18.316Z,78.21
2023-11-26T09:40:25.960Z,78.07
2023-11-26T09:45:33.504Z,78.13
2023-11-26T09:50:40.915Z,78.30
2023-11-26T09:55:48.561Z,78.26
2023-11-26T10:06:13.729Z,78.30
2023-11-26T10:11:24.975Z,78.19
2023-11-26T10:16:35.718Z,78.21
2023-11-26T10:21:55.184Z,78.03
2023-11-26T10:27:16.067Z,78.07
2023-11-26T10:32:22.079Z,78.04
2023-11-26T10:37:33.058Z,77.94
2023-11-26T10:42:48.719Z,77.73
2023-11-26T10:47:57.546Z,77.45
2023-11-26T10:53:12.214Z,77.51
2023-11-26T10:58:21.046Z,77.53
2023-11-26T11:03:34.107Z,77.70
2023-11-26T11:08:45.107Z,77.68
2023-11-26T11:14:26.971Z,77.39
2023-11-26T11:20:03.823Z,77.20
2023-11-26T11:25:34.089Z,76.87
2023-11-26T11:30:55.898Z,76.63
2023-11-26T11:36:09.138Z,76.40
2023-11-26T11:41:19.116Z,76.48
2023-11-26T11:46:51.876Z,76.43
2023-11-26T11:52:01.187Z,76.27
2023-11-26T11:57:15.143Z,76.01
2023-11-26T12:02:26.106Z,76.05
2023-11-26T12:07:36.530Z,76.04
2023-11-26T12:12:44.306Z,76.02
2023-11-26T12:17:51.997Z,75.94
2023-11-26T12:22:59.527Z,76.09
2023-11-26T12:28:08.977Z,76.10
2023-11-26T12:33:19.480Z,76.11
2023-11-26T12:38:29.468Z,76.01
2023-11-26T12:43:37.285Z,75.93
2023-11-26T12:48:45.169Z,75.89
2023-11-26T12:53:54.218Z,75.99
2023-11-26T12:59:02.155Z,75.93
2023-11-26T13:04:08.126Z,76.01
2023-11-26T13:09:18.771Z,75.96
2023-11-26T13:14:26.206Z,75.80
2023-11-26T13:19:33.837Z,75.79
2023-11-26T13:24:41.270Z,75.81
2023-11-26T13:29:48.739Z,75.82
2023-11-26T13:34:57.095Z,75.75
2023-11-26T13:40:20.728Z,75.80
2023-11-26T13:45:36.048Z,75.68
2023-11-26T13:50:44.435Z,75.77
2023-11-26T13:55:52.713Z,75.71
2023-11-26T14:01:00.190Z,75.85
2023-11-26T14:06:07.120Z,75.78
2023-11-26T14:11:17.591Z,75.65
2023-11-26T14:16:24.902Z,75.61
2023-11-26T14:21:32.289Z,75.70
2023-11-26T14:26:39.934Z,75.71
2023-11-26T14:31:47.444Z,75.66
2023-11-26T14:36:54.953Z,75.60
2023-11-26T14:42:02.355Z,75.60
2023-11-26T14:47:11.053Z,75.79
2023-11-26T14:52:18.525Z,75.75
2023-11-26T14:57:27.655Z,75.72
2023-11-26T15:02:35.370Z,75.78
2023-11-26T15:07:43.389Z,75.78
2023-11-26T15:12:50.791Z,75.84
2023-11-26T15:17:58.328Z,75.82
2023-11-26T15:23:05.770Z,75.88
2023-11-26T15:28:13.415Z,75.76
2023-11-26T15:33:20.546Z,75.66
2023-11-26T15:38:27.987Z,75.76
2023-11-26T15:43:35.350Z,75.75
2023-11-26T15:48:43.929Z,75.76
2023-11-26T15:54:02.407Z,75.70
2023-11-26T15:59:11.285Z,75.84
2023-11-26T16:04:18.738Z,75.79
2023-11-26T16:09:26.742Z,75.84
2023-11-26T16:14:34.463Z,75.83
2023-11-26T16:19:42.802Z,75.97
2023-11-26T16:24:50.243Z,75.85
2023-11-26T16:29:56.836Z,75.89
2023-11-26T16:35:04.538Z,75.90
2023-11-26T16:40:13.976Z,75.96
2023-11-26T16:45:22.722Z,75.98
2023-11-26T16:50:30.247Z,76.04
2023-11-26T16:55:41.805Z,76.15
2023-11-26T17:00:50.076Z,76.20
2023-11-26T17:05:59.224Z,76.23
2023-11-26T17:11:07.086Z,76.23
2023-11-26T17:16:18.255Z,76.26
2023-11-26T17:21:26.003Z,76.31
2023-11-26T17:26:38.436Z,76.28
2023-11-26T17:32:06.666Z,76.42
2023-11-26T17:37:13.245Z,76.43
2023-11-26T17:42:21.786Z,76.52
2023-11-26T17:47:47.151Z,76.56
2023-11-26T17:53:09.810Z,76.61
2023-11-26T17:58:20.308Z,76.68
2023-11-26T18:03:27.867Z,76.68
2023-11-26T18:08:47.288Z,76.55
2023-11-26T18:14:00.343Z,76.77
2023-11-26T18:19:07.669Z,76.85
2023-11-26T18:24:16.443Z,76.76
2023-11-26T18:29:24.625Z,76.95
2023-11-26T18:34:32.103Z,76.99
2023-11-26T18:39:42.744Z,76.88
2023-11-26T18:44:52.668Z,76.86
2023-11-26T18:50:00.631Z,76.98
2023-11-26T18:55:08.175Z,76.93
2023-11-26T19:00:18.129Z,76.99
2023-11-26T19:05:27.221Z,76.98
2023-11-26T19:10:39.260Z,76.93
2023-11-26T19:15:49.709Z,77.02
2023-11-26T19:21:06.810Z,77.11
2023-11-26T19:26:16.385Z,76.95
2023-11-26T19:31:27.440Z,77.04
2023-11-26T19:36:39.305Z,77.05
2023-11-26T19:41:48.121Z,76.98
2023-11-26T19:47:01.920Z,76.94
2023-11-26T19:52:12.126Z,77.06
2023-11-26T19:57:36.194Z,76.93
2023-11-26T20:02:48.309Z,77.00
2023-11-26T20:07:56.387Z,76.95
2023-11-26T20:13:02.181Z,77.12
2023-11-26T20:18:13.267Z,77.10
2023-11-26T20:23:22.862Z,77.06
2023-11-26T20:28:30.317Z,77.02
2023-11-26T20:33:40.926Z,77.07
2023-11-26T20:38:48.373Z,76.98
2023-11-26T20:43:57.014Z,77.16
2023-11-26T20:49:04.466Z,77.12
2023-11-26T20:54:12.029Z,77.26
2023-11-26T20:59:22.774Z,77.23
2023-11-26T21:04:31.608Z,77.30
2023-11-26T21:09:38.962Z,77.21
2023-11-26T21:14:46.358Z,77.21
2023-11-26T21:19:54.097Z,77.13
2023-11-26T21:25:01.553Z,77.22
2023-11-26T21:30:10.656Z,77.08
2023-11-26T21:35:18.410Z,77.13
2023-11-26T21:40:26.316Z,77.17
2023-11-26T21:45:31.927Z,77.22
2023-11-26T21:50:39.101Z,77.34
2023-11-26T21:55:47.819Z,77.38
2023-11-26T22:00:55.282Z,77.42
2023-11-26T22:06:02.401Z,77.43
2023-11-26T22:11:12.099Z,77.43
2023-11-26T22:16:20.790Z,77.47
2023-11-26T22:21:28.078Z,77.50
2023-11-26T22:26:41.457Z,77.66
2023-11-26T22:31:52.157Z,77.69
2023-11-26T22:36:59.610Z,77.65
2023-11-26T22:42:07.197Z,77.86
2023-11-26T22:47:14.626Z,77.76
2023-11-26T22:52:22.182Z,77.78
2023-11-26T22:57:29.875Z,77.84
2023-11-26T23:02:38.095Z,77.77
2023-11-26T23:07:46.914Z,77.88
2023-11-26T23:12:54.161Z,77.82
2023-11-26T23:18:01.544Z,77.77
2023-11-26T23:23:08.844Z,77.84
2023-11-26T23:28:16.262Z,77.75
2023-11-26T23:33:23.447Z,77.74
2023-11-26T23:38:30.498Z,77.71
2023-11-26T23:43:39.443Z,77.90
2023-11-26T23:48:46.847Z,77.82
2023-11-26T23:53:55.045Z,77.86
2023-11-26T23:59:02.327Z,77.81
